Time;durP1;ratioP1;P1;durP2;ratioP2;P2;SDS_P1;SDS_P2;PMS_P1;PMS_P2;Temp;Humidity;BMP_temperature;BMP_pressure;BME280_temperature;BME280_humidity;BME280_pressure;Samples;Min_cycle;Max_cycle;Signal;HPM_P1;HPM_P2
2022/06/17 00:01:23;;;;;;;2.40;2.20;;;;;;;11.48;100.00;100979.58;1687578;84;21019;-43
2022/06/17 00:03:51;;;;;;;3.35;2.40;;;;;;;11.48;100.00;100975.69;1650293;85;21073;-43
2022/06/17 00:06:21;;;;;;;6.85;2.40;;;;;;;11.50;100.00;100979.15;1690157;84;20958;-43
2022/06/17 00:08:51;;;;;;;6.42;2.33;;;;;;;11.49;100.00;100973.97;1661196;85;21007;-43
2022/06/17 00:11:34;;;;;;;4.05;2.80;;;;;;;11.50;100.00;100980.87;1689496;84;20956;-43
2022/06/17 00:17:37;;;;;;;3.90;1.72;;;;;;;11.47;100.00;100973.14;1788791;80;20900;-43
2022/06/17 00:20:11;;;;;;;3.98;2.20;;;;;;;11.46;100.00;100973.56;1788484;80;21561;-42
2022/06/17 00:22:40;;;;;;;6.55;2.83;;;;;;;11.47;100.00;100969.25;1788670;80;21524;-43
2022/06/17 00:25:32;;;;;;;3.08;2.58;;;;;;;11.49;100.00;100967.06;1788715;80;20978;-43
2022/06/17 00:27:59;;;;;;;3.85;2.72;;;;;;;11.46;100.00;100970.97;1788465;80;20948;-43
2022/06/17 00:30:30;;;;;;;4.85;2.52;;;;;;;11.40;100.00;100974.11;1788562;80;21508;-43
2022/06/17 00:33:01;;;;;;;4.15;2.62;;;;;;;11.38;100.00;100980.59;1788294;79;21086;-43
2022/06/17 00:35:35;;;;;;;4.05;2.87;;;;;;;11.33;100.00;100983.70;1788494;80;20924;-43
2022/06/17 00:38:03;;;;;;;5.33;2.70;;;;;;;11.28;100.00;100983.74;1788642;80;21003;-43
2022/06/17 00:40:32;;;;;;;2.87;2.60;;;;;;;11.25;100.00;100979.06;1788472;80;20935;-42
2022/06/17 00:43:05;;;;;;;4.25;2.80;;;;;;;11.21;100.00;100971.30;1788598;80;20944;-43
2022/06/17 00:45:40;;;;;;;3.95;2.60;;;;;;;11.18;100.00;100972.64;1788479;80;21049;-42
2022/06/17 00:48:18;;;;;;;5.10;2.50;;;;;;;11.15;100.00;100969.25;1788413;80;20917;-41
2022/06/17 00:51:09;;;;;;;4.55;2.40;;;;;;;11.13;100.00;100969.25;1759517;80;20995;-43
2022/06/17 00:53:50;;;;;;;4.28;2.47;;;;;;;11.10;100.00;100962.81;1788538;80;20992;-42
2022/06/17 00:56:22;;;;;;;7.10;2.50;;;;;;;11.05;100.00;100965.91;1769449;80;20927;-43
2022/06/17 00:59:07;;;;;;;2.92;2.72;;;;;;;11.01;100.00;100963.78;1759775;80;21208;-43
2022/06/17 01:01:50;;;;;;;3.67;2.50;;;;;;;10.97;100.00;100968.59;1759729;80;20971;-43
2022/06/17 01:04:29;;;;;;;2.75;2.55;;;;;;;10.93;100.00;100965.16;1759802;81;21011;-43
2022/06/17 01:07:02;;;;;;;12.93;2.80;;;;;;;10.91;100.00;100966.91;1758931;81;21477;-42
2022/06/17 01:12:21;;;;;;;4.92;3.10;;;;;;;10.87;100.00;100970.42;1759941;81;21090;-44
2022/06/17 01:14:49;;;;;;;4.85;2.72;;;;;;;10.87;100.00;100973.47;1762537;80;20940;-44
2022/06/17 01:17:18;;;;;;;3.50;2.40;;;;;;;10.84;100.00;100965.28;1763159;81;21533;-43
2022/06/17 01:19:54;;;;;;;5.87;2.77;;;;;;;10.81;100.00;100972.22;1763030;81;20988;-44
2022/06/17 01:22:34;;;;;;;8.10;2.85;;;;;;;10.77;100.00;100970.12;1761926;81;20961;-44
2022/06/17 01:25:05;;;;;;;4.80;2.83;;;;;;;10.76;100.00;100967.11;1763026;81;21153;-44
2022/06/17 01:27:36;;;;;;;3.45;2.83;;;;;;;10.75;100.00;100962.81;1723691;81;21537;-44
2022/06/17 01:30:04;;;;;;;6.10;2.58;;;;;;;10.74;100.00;100968.86;1762425;80;21020;-44
2022/06/17 01:32:40;;;;;;;6.55;2.83;;;;;;;10.72;100.00;100966.70;1762340;81;21039;-44
2022/06/17 01:35:09;;;;;;;4.70;2.40;;;;;;;10.68;100.00;100965.89;1762300;81;20898;-42
2022/06/17 01:37:37;;;;;;;8.15;3.10;;;;;;;10.66;100.00;100965.48;1737535;81;20972;-42
2022/06/17 01:40:06;;;;;;;4.53;2.95;;;;;;;10.68;100.00;100971.49;1762553;81;20953;-42
2022/06/17 01:42:34;;;;;;;13.10;3.47;;;;;;;10.74;100.00;100971.45;1762569;81;21533;-43
2022/06/17 01:45:01;;;;;;;5.55;3.27;;;;;;;10.84;100.00;100967.88;1762437;81;20986;-42
2022/06/17 01:47:28;;;;;;;5.15;3.05;;;;;;;10.94;100.00;100968.63;1762562;81;20972;-42
2022/06/17 01:50:00;;;;;;;7.35;3.40;;;;;;;11.07;100.00;100957.22;1736553;81;21066;-42
2022/06/17 01:52:35;;;;;;;4.83;3.50;;;;;;;11.20;100.00;100954.48;1761033;81;21008;-43
2022/06/17 01:55:13;;;;;;;8.80;2.67;;;;;;;11.29;100.00;100956.11;1762167;80;21600;-43
2022/06/17 01:57:46;;;;;;;7.97;2.80;;;;;;;11.35;100.00;100954.72;1700445;81;20989;-43
2022/06/17 02:00:23;;;;;;;7.75;2.70;;;;;;;11.35;100.00;100954.27;1762518;81;21019;-43
2022/06/17 02:02:59;;;;;;;5.70;2.67;;;;;;;11.33;100.00;100953.89;1762491;81;21085;-43
2022/06/17 02:05:30;;;;;;;5.65;2.55;;;;;;;11.28;100.00;100956.53;1762200;81;20885;-43
2022/06/17 02:07:58;;;;;;;5.58;2.33;;;;;;;11.23;100.00;100957.04;1762404;80;20972;-43
2022/06/17 02:10:34;;;;;;;3.80;2.37;;;;;;;11.20;100.00;100954.48;1736723;81;21637;-46
2022/06/17 02:13:03;;;;;;;9.43;2.60;;;;;;;11.15;100.00;100954.54;1761591;81;20945;-43
2022/06/17 02:15:33;;;;;;;6.08;2.72;;;;;;;11.12;100.00;100948.11;1762205;81;20922;-44
2022/06/17 02:18:14;;;;;;;4.28;2.70;;;;;;;11.10;100.00;100944.68;1760285;81;21494;-43
2022/06/17 02:20:43;;;;;;;;;;;;;;;11.11;100.00;100946.81;1765171;81;21477;-43
2022/06/17 02:23:10;;;;;;;2.77;2.52;;;;;;;11.10;100.00;100943.38;1762448;81;20089;-43
2022/06/17 02:25:42;;;;;;;2.30;2.20;;;;;;;11.15;100.00;100946.77;1762277;81;20949;-44
2022/06/17 02:28:10;;;;;;;10.28;3.70;;;;;;;11.20;100.00;100947.55;1762312;81;21347;-43
2022/06/17 02:30:38;;;;;;;2.85;2.40;;;;;;;11.30;100.00;100950.89;1762603;80;21562;-43
2022/06/17 02:33:05;;;;;;;2.70;2.50;;;;;;;11.38;100.00;100951.25;1762578;81;20933;-43
2022/06/17 02:35:58;;;;;;;3.70;2.50;;;;;;;11.44;100.00;100949.40;1762520;81;21530;-43
2022/06/17 02:38:28;;;;;;;5.92;2.72;;;;;;;11.51;100.00;100944.98;1762557;81;20937;-42
2022/06/17 02:41:00;;;;;;;5.35;2.35;;;;;;;11.58;100.00;100946.61;1762610;81;21711;-43
2022/06/17 02:43:30;;;;;;;3.42;2.20;;;;;;;11.68;100.00;100954.27;1762347;81;20980;-43
2022/06/17 02:46:03;;;;;;;4.97;2.75;;;;;;;11.76;100.00;100952.41;1762272;81;20976;-43
2022/06/17 02:48:36;;;;;;;5.53;2.40;;;;;;;11.88;100.00;100956.55;1762277;81;20960;-43
2022/06/17 02:51:04;;;;;;;2.77;2.37;;;;;;;12.02;100.00;100955.92;1762283;81;21514;-43
2022/06/17 02:53:36;;;;;;;6.40;1.98;;;;;;;12.13;100.00;100949.26;1736500;81;21521;-43
2022/06/17 02:56:20;;;;;;;7.00;2.40;;;;;;;12.26;100.00;100952.50;1762236;81;21533;-43
2022/06/17 02:59:03;;;;;;;3.47;1.82;;;;;;;12.41;100.00;100953.09;1761579;81;20945;-43
2022/06/17 03:01:32;;;;;;;3.25;1.80;;;;;;;12.60;100.00;100958.36;1761919;81;20977;-43
2022/06/17 03:04:20;;;;;;;2.83;1.80;;;;;;;12.79;100.00;100960.16;1760169;81;20976;-43
2022/06/17 03:06:49;;;;;;;5.92;2.15;;;;;;;12.97;100.00;100957.22;1762387;80;21820;-43
2022/06/17 03:09:27;;;;;;;6.65;1.50;;;;;;;13.21;100.00;100951.50;1762319;81;21526;-43
2022/06/17 03:12:19;;;;;;;13.45;1.80;;;;;;;13.43;100.00;100956.27;1723185;81;21015;-43
2022/06/17 03:14:56;;;;;;;13.70;2.52;;;;;;;13.64;100.00;100948.87;1762384;81;20965;-44
2022/06/17 03:17:25;;;;;;;9.93;2.12;;;;;;;13.79;100.00;100944.62;1762364;80;20937;-42
2022/06/17 03:19:54;;;;;;;6.03;1.50;;;;;;;13.96;100.00;100955.04;1762216;81;21882;-42
2022/06/17 03:22:21;;;;;;;5.62;1.27;;;;;;;14.10;100.00;100947.34;1762204;81;20945;-45
2022/06/17 03:24:57;;;;;;;2.17;1.32;;;;;;;14.23;100.00;100951.33;1736619;81;20968;-43
2022/06/17 03:27:35;;;;;;;3.00;1.35;;;;;;;14.36;100.00;100950.13;1762505;81;21498;-43
2022/06/17 03:30:03;;;;;;;1.82;1.20;;;;;;;14.51;100.00;100953.20;1736395;81;20995;-43
2022/06/17 03:32:37;;;;;;;3.72;1.30;;;;;;;14.65;100.00;100952.39;1737049;81;22036;-43
2022/06/17 03:35:05;;;;;;;5.65;1.40;;;;;;;14.76;100.00;100949.52;1762301;81;21502;-44
2022/06/17 03:37:40;;;;;;;3.30;1.22;;;;;;;14.92;100.00;100946.02;1762274;81;21032;-43
2022/06/17 03:40:25;;;;;;;3.90;1.70;;;;;;;15.11;100.00;100944.63;1761275;80;20913;-45
2022/06/17 03:43:17;;;;;;;3.12;1.35;;;;;;;15.40;100.00;100940.28;1762403;81;20948;-44
2022/06/17 03:46:03;;;;;;;4.10;1.20;;;;;;;15.79;100.00;100947.76;1762398;81;21273;-43
2022/06/17 03:49:03;;;;;;;2.35;1.02;;;;;;;16.21;100.00;100947.27;1761887;81;20991;-44
2022/06/17 03:51:30;;;;;;;1.17;1.00;;;;;;;16.61;97.87;100951.55;1762316;81;20980;-43
2022/06/17 03:53:58;;;;;;;1.15;1.00;;;;;;;17.01;92.01;100944.47;1762297;81;20922;-42
2022/06/17 03:56:34;;;;;;;3.77;0.95;;;;;;;17.28;88.17;100953.04;1762359;81;20921;-43
2022/06/17 03:59:07;;;;;;;5.87;1.07;;;;;;;17.52;85.89;100944.67;1762360;81;21289;-43
2022/06/17 04:01:52;;;;;;;1.92;1.37;;;;;;;17.80;83.69;100946.64;1762252;81;21589;-42
2022/06/17 04:04:37;;;;;;;2.95;0.70;;;;;;;18.11;81.36;100948.48;1755130;81;20876;-43
2022/06/17 04:07:04;;;;;;;2.10;1.10;;;;;;;18.47;79.59;100951.73;1762349;81;21573;-43
2022/06/17 04:09:38;;;;;;;2.40;1.45;;;;;;;18.80;75.83;100953.31;1762377;81;21004;-43
2022/06/17 04:12:19;;;;;;;6.08;1.00;;;;;;;19.13;75.06;100947.94;1736735;81;21015;-43
2022/06/17 04:15:29;;;;;;;3.70;1.07;;;;;;;19.45;72.84;100948.18;1752823;81;20995;-43
2022/06/17 04:17:58;;;;;;;2.33;0.95;;;;;;;19.73;70.57;100944.21;1746075;82;21063;-43
2022/06/17 04:20:36;;;;;;;2.67;1.22;;;;;;;20.11;69.97;100945.87;1745996;82;20992;-43
2022/06/17 04:23:22;;;;;;;1.82;0.98;;;;;;;20.45;67.92;100948.55;1746110;81;20968;-43
2022/06/17 04:26:08;;;;;;;3.30;1.10;;;;;;;20.84;67.18;100947.41;1745759;80;21071;-43
2022/06/17 04:28:52;;;;;;;6.67;1.10;;;;;;;21.19;63.44;100945.06;1745968;80;21030;-44
2022/06/17 04:31:26;;;;;;;2.00;0.90;;;;;;;21.45;62.42;100938.80;1746075;82;21027;-44
2022/06/17 04:34:11;;;;;;;5.05;0.95;;;;;;;21.70;60.46;100932.16;1744294;82;20936;-43
2022/06/17 04:36:49;;;;;;;3.77;0.85;;;;;;;21.88;59.50;100936.84;1746140;81;21521;-43
2022/06/17 04:39:23;;;;;;;1.57;0.90;;;;;;;22.08;58.84;100939.13;1745953;82;22007;-44
2022/06/17 04:41:57;;;;;;;8.80;1.15;;;;;;;22.34;58.42;100935.88;1744854;80;20975;-43
2022/06/17 04:44:25;;;;;;;3.27;1.07;;;;;;;22.52;56.63;100929.52;1745766;82;20924;-43
2022/06/17 04:47:07;;;;;;;2.12;1.00;;;;;;;22.70;56.04;100938.53;1745860;82;21494;-43
2022/06/17 04:49:50;;;;;;;3.30;0.98;;;;;;;22.89;56.55;100932.97;1742331;82;21047;-43
2022/06/17 04:52:41;;;;;;;8.55;1.90;;;;;;;23.08;55.13;100930.46;1745911;82;21485;-43
2022/06/17 04:55:32;;;;;;;3.52;1.05;;;;;;;23.19;54.30;100931.95;1744444;81;21023;-44
2022/06/17 04:58:01;;;;;;;4.62;1.05;;;;;;;23.24;54.40;100934.28;1743432;80;21466;-44
2022/06/17 05:00:28;;;;;;;4.42;1.00;;;;;;;23.44;53.88;100927.75;1724767;82;20979;-44
2022/06/17 05:02:57;;;;;;;4.35;1.30;;;;;;;23.67;53.09;100924.07;1746063;81;20990;-44
2022/06/17 05:05:38;;;;;;;1.77;0.90;;;;;;;23.94;52.98;100933.24;1745608;80;21956;-44
2022/06/17 05:08:16;;;;;;;5.58;1.10;;;;;;;24.26;53.12;100929.39;1725874;82;20967;-43
2022/06/17 05:10:51;;;;;;;9.75;1.17;;;;;;;24.38;51.61;100929.88;1746251;82;20940;-44
2022/06/17 05:13:27;;;;;;;2.83;1.02;;;;;;;24.53;50.52;100929.28;1746028;82;21008;-44
2022/06/17 05:15:56;;;;;;;3.90;1.07;;;;;;;24.65;49.50;100929.35;1746129;81;20877;-44
2022/06/17 05:18:25;;;;;;;3.22;1.05;;;;;;;24.70;49.06;100929.04;1746225;82;21219;-44
2022/06/17 05:20:54;;;;;;;2.42;1.20;;;;;;;24.79;48.89;100934.56;1744678;82;21015;-44
2022/06/17 05:23:21;;;;;;;23.07;2.25;;;;;;;25.00;48.45;100933.11;1746189;82;20980;-44
2022/06/17 05:25:49;;;;;;;15.75;1.45;;;;;;;25.27;48.68;100932.06;1746053;81;21498;-44
2022/06/17 05:28:19;;;;;;;1.75;1.00;;;;;;;25.47;46.76;100929.28;1746077;82;21026;-44
2022/06/17 05:30:53;;;;;;;4.35;1.20;;;;;;;25.61;45.28;100921.63;1746051;82;21137;-43
2022/06/17 05:33:21;;;;;;;3.45;0.98;;;;;;;25.73;45.89;100915.42;1724817;82;20948;-44
2022/06/17 05:35:48;;;;;;;4.20;1.07;;;;;;;25.87;43.93;100917.02;1746143;81;21023;-45
2022/06/17 05:38:16;;;;;;;3.42;1.17;;;;;;;25.93;43.77;100917.05;1746102;81;20987;-44
2022/06/17 05:40:44;;;;;;;5.85;1.10;;;;;;;26.09;44.32;100913.55;1746163;80;20959;-44
2022/06/17 05:43:11;;;;;;;2.98;1.02;;;;;;;26.21;43.48;100913.11;1746291;81;21241;-44
2022/06/17 05:45:39;;;;;;;1.25;0.75;;;;;;;26.34;42.65;100907.69;1746017;80;21479;-44
2022/06/17 05:48:08;;;;;;;6.08;1.30;;;;;;;26.38;42.50;100913.61;1744215;82;20932;-44
2022/06/17 05:50:50;;;;;;;3.87;1.22;;;;;;;26.29;42.33;100915.67;1749426;80;21617;-44
2022/06/17 05:53:22;;;;;;;10.10;1.50;;;;;;;26.34;42.17;100914.33;1745302;82;21478;-44
2022/06/17 05:55:54;;;;;;;5.30;1.20;;;;;;;26.44;42.09;100914.45;1745857;80;21059;-44
2022/06/17 05:58:22;;;;;;;6.37;1.70;;;;;;;26.30;40.73;100905.42;1745989;80;20992;-44
2022/06/17 06:00:51;;;;;;;6.15;2.08;;;;;;;26.16;42.31;100913.10;1746137;81;20996;-44
2022/06/17 06:03:23;;;;;;;4.83;1.40;;;;;;;26.34;41.58;100907.69;1746078;80;20992;-44
2022/06/17 06:05:50;;;;;;;13.20;2.22;;;;;;;26.58;41.02;100908.05;1746201;82;20991;-44
2022/06/17 06:08:19;;;;;;;15.85;2.50;;;;;;;26.83;41.94;100900.77;1746229;81;21826;-44
2022/06/17 06:10:46;;;;;;;9.45;1.90;;;;;;;27.04;41.03;100904.02;1746040;82;20972;-43
2022/06/17 06:13:17;;;;;;;10.53;1.98;;;;;;;27.11;39.15;100898.55;1746081;82;20991;-44
2022/06/17 06:15:48;;;;;;;8.23;1.57;;;;;;;26.91;38.74;100902.84;1747391;80;20932;-43
2022/06/17 06:18:27;;;;;;;23.07;2.35;;;;;;;26.74;39.87;100898.88;1740402;82;21007;-44
2022/06/17 06:20:54;;;;;;;8.03;1.22;;;;;;;26.87;38.03;100900.09;1748803;82;21153;-44
2022/06/17 06:23:22;;;;;;;6.53;1.20;;;;;;;26.88;39.00;100901.27;1748692;81;20976;-44
2022/06/17 06:25:49;;;;;;;8.63;1.40;;;;;;;26.78;37.43;100900.30;1748762;82;20928;-44
2022/06/17 06:28:23;;;;;;;5.80;1.12;;;;;;;26.77;37.65;100894.64;1721274;82;20952;-44
2022/06/17 06:30:55;;;;;;;4.65;1.60;;;;;;;26.78;37.93;100891.88;1748325;82;21001;-43
2022/06/17 06:33:23;;;;;;;17.87;1.47;;;;;;;26.85;38.92;100884.77;1748642;82;21067;-44
2022/06/17 06:35:49;;;;;;;18.95;1.52;;;;;;;26.78;37.71;100883.91;1748721;82;21438;-44
2022/06/17 06:38:16;;;;;;;4.83;1.00;;;;;;;26.81;38.24;100875.70;1748818;82;20932;-43
2022/06/17 06:40:43;;;;;;;30.37;2.12;;;;;;;26.82;35.92;100876.05;1748832;82;20925;-44
2022/06/17 06:43:16;;;;;;;16.42;1.62;;;;;;;26.76;38.79;100878.35;1748831;82;20992;-44
2022/06/17 06:46:09;;;;;;;22.85;1.60;;;;;;;26.89;37.49;100875.08;1748731;81;21250;-43
2022/06/17 06:48:37;;;;;;;48.17;2.70;;;;;;;26.84;36.98;100871.92;1721334;82;21486;-43
2022/06/17 06:51:04;;;;;;;63.92;4.62;;;;;;;26.74;36.30;100876.30;1748592;82;20959;-43
2022/06/17 06:53:31;;;;;;;16.32;1.75;;;;;;;26.65;38.09;100876.56;1748732;82;20924;-43
2022/06/17 06:55:58;;;;;;;4.35;1.00;;;;;;;26.75;38.31;100874.02;1748952;82;21493;-43
2022/06/17 06:58:25;;;;;;;32.70;2.50;;;;;;;26.83;35.73;100864.93;1748662;82;21183;-43
2022/06/17 07:00:56;;;;;;;25.37;2.60;;;;;;;26.74;35.50;100873.66;1748696;82;20956;-43
2022/06/17 07:03:26;;;;;;;14.58;1.75;;;;;;;26.82;35.86;100862.78;1748728;82;20995;-44
2022/06/17 07:05:56;;;;;;;7.90;1.15;;;;;;;26.98;34.66;100866.02;1748624;82;21011;-44
2022/06/17 07:08:26;;;;;;;15.95;1.35;;;;;;;27.03;34.27;100863.83;1748775;82;21030;-44
2022/06/17 07:10:55;;;;;;;20.45;1.40;;;;;;;26.96;34.43;100861.68;1748798;82;21940;-45
2022/06/17 07:13:22;;;;;;;29.15;3.12;;;;;;;26.94;34.78;100865.42;1748562;80;21486;-44
2022/06/17 07:15:54;;;;;;;30.10;2.10;;;;;;;26.94;34.05;100864.95;1747355;81;20936;-44
2022/06/17 07:18:25;;;;;;;22.42;2.02;;;;;;;26.93;34.18;100867.25;1745035;82;20928;-44
2022/06/17 07:20:55;;;;;;;5.15;1.32;;;;;;;26.85;32.74;100867.00;1746133;81;21456;-44
2022/06/17 07:23:34;;;;;;;13.72;1.30;;;;;;;26.89;34.69;100857.81;1745937;81;21052;-44
2022/06/17 07:26:18;;;;;;;3.85;0.80;;;;;;;26.94;33.85;100861.44;1745448;82;20958;-44
2022/06/17 07:28:46;;;;;;;11.40;1.25;;;;;;;26.95;32.82;100860.46;1738709;82;20920;-45
2022/06/17 07:31:13;;;;;;;10.08;1.00;;;;;;;27.08;32.83;100858.50;1746163;80;20936;-44
2022/06/17 07:45:19;;;;;;;4.50;0.80;;;;;;;28.07;30.64;100852.52;1871275;76;22606;-44
2022/06/17 07:47:48;;;;;;;11.28;1.17;;;;;;;27.87;30.93;100854.23;1827582;77;20912;-44
2022/06/17 07:50:19;;;;;;;55.00;4.30;;;;;;;27.63;30.74;100856.67;1827338;78;21038;-45
2022/06/17 07:52:46;;;;;;;6.37;1.10;;;;;;;27.56;32.80;100859.03;1827435;78;20939;-45
2022/06/17 07:55:14;;;;;;;12.45;1.00;;;;;;;27.70;32.44;100857.86;1827498;78;21382;-44
2022/06/17 07:57:42;;;;;;;2.77;0.90;;;;;;;27.75;31.93;100852.98;1827477;78;20873;-43
2022/06/17 08:00:14;;;;;;;5.83;0.75;;;;;;;27.63;31.47;100855.34;1827446;78;20981;-43
2022/06/17 08:02:41;;;;;;;35.90;2.58;;;;;;;27.60;31.73;100847.16;1827078;78;21111;-44
2022/06/17 08:05:08;;;;;;;47.13;3.35;;;;;;;27.62;31.23;100848.34;1827397;78;21370;-44
2022/06/17 08:07:35;;;;;;;21.50;1.60;;;;;;;27.71;30.41;100849.38;1827499;78;20899;-44
2022/06/17 08:10:03;;;;;;;8.98;1.17;;;;;;;27.97;30.79;100845.32;1827357;78;21512;-44
2022/06/17 08:12:32;;;;;;;12.78;0.90;;;;;;;28.19;30.38;100847.48;1827488;78;20932;-44
2022/06/17 08:14:58;;;;;;;12.30;1.27;;;;;;;28.17;30.38;100848.10;1827262;78;22108;-44
2022/06/17 08:17:25;;;;;;;1.42;0.70;;;;;;;28.24;32.86;100851.91;1827432;78;20865;-44
2022/06/17 08:19:56;;;;;;;5.65;0.93;;;;;;;28.52;31.03;100842.80;1827247;78;20916;-44
2022/06/17 08:22:25;;;;;;;1.70;0.90;;;;;;;28.87;29.84;100839.31;1827209;77;20967;-44
2022/06/17 08:24:57;;;;;;;14.87;0.93;;;;;;;29.05;29.05;100839.97;1827216;78;20908;-44
2022/06/17 08:27:24;;;;;;;5.78;0.93;;;;;;;28.78;30.25;100838.80;1827496;78;21344;-45
2022/06/17 08:29:51;;;;;;;9.90;0.85;;;;;;;28.42;30.42;100844.61;1827244;77;20927;-44
2022/06/17 08:35:04;;;;;;;4.20;0.70;;;;;;;27.90;29.87;100838.00;1795036;79;20967;-44
2022/06/17 08:37:31;;;;;;;1.72;0.50;;;;;;;27.64;31.22;100833.97;1759517;81;21320;-44
2022/06/17 08:39:58;;;;;;;0.85;0.78;;;;;;;27.37;30.55;100835.30;1759639;81;21052;-43
2022/06/17 08:42:40;;;;;;;2.37;0.75;;;;;;;27.05;30.78;100838.84;1759699;81;20839;-43
2022/06/17 08:45:31;;;;;;;3.15;0.72;;;;;;;26.75;31.55;100841.66;1757170;81;20914;-45
2022/06/17 08:48:35;;;;;;;9.95;0.80;;;;;;;26.53;32.65;100844.74;1759595;81;21401;-45
2022/06/17 08:51:34;;;;;;;3.05;0.90;;;;;;;26.77;33.15;100827.77;1759792;81;20951;-43
2022/06/17 08:54:30;;;;;;;1.30;0.70;;;;;;;27.28;31.74;100832.57;1759841;81;21256;-44
2022/06/17 08:57:12;;;;;;;3.77;0.65;;;;;;;27.85;30.90;100837.09;1759517;81;21508;-44
2022/06/17 09:00:07;;;;;;;3.85;0.80;;;;;;;28.01;31.50;100832.61;1759036;81;20907;-44
2022/06/17 09:02:59;;;;;;;2.47;0.80;;;;;;;27.93;31.13;100835.11;1730693;81;20895;-45
2022/06/17 09:05:50;;;;;;;7.15;0.75;;;;;;;27.48;29.45;100841.04;1759125;81;20939;-44
2022/06/17 09:08:53;;;;;;;6.20;0.80;;;;;;;26.90;30.75;100840.91;1759306;81;21272;-45
2022/06/17 09:11:27;;;;;;;2.47;0.65;;;;;;;26.45;31.32;100840.52;1758990;81;20923;-44
2022/06/17 09:14:27;;;;;;;1.15;0.62;;;;;;;26.14;31.43;100839.41;1727175;81;20919;-44
2022/06/17 09:17:05;;;;;;;0.78;0.65;;;;;;;26.15;31.42;100839.80;1758983;81;20955;-44
2022/06/17 09:19:34;;;;;;;2.10;0.72;;;;;;;26.09;32.77;100834.49;1759214;81;21013;-43
2022/06/17 09:22:10;;;;;;;5.78;0.80;;;;;;;25.97;31.91;100837.13;1759170;81;21250;-43
2022/06/17 09:24:41;;;;;;;0.95;0.80;;;;;;;25.96;32.62;100829.30;1735026;81;20919;-44
2022/06/17 09:27:22;;;;;;;7.80;0.68;;;;;;;26.10;32.67;100830.37;1759031;80;21463;-44
2022/06/17 09:30:06;;;;;;;1.52;0.75;;;;;;;26.47;34.72;100829.79;1759029;81;20919;-44
2022/06/17 09:32:38;;;;;;;6.33;0.80;;;;;;;27.19;31.95;100823.55;1730154;81;20879;-43
2022/06/17 09:35:31;;;;;;;2.02;0.82;;;;;;;27.59;30.52;100822.03;1759131;81;21166;-44
2022/06/17 09:38:15;;;;;;;1.80;0.70;;;;;;;27.61;31.14;100819.61;1641941;86;20936;-44
2022/06/17 09:40:46;;;;;;;4.83;1.40;;;;;;;27.85;31.99;100822.47;1794169;79;20873;-45
2022/06/17 09:43:25;;;;;;;1.92;0.68;;;;;;;28.33;30.25;100811.67;1759050;81;20864;-44
2022/06/17 09:45:59;;;;;;;4.20;0.72;;;;;;;28.88;30.40;100809.55;1758975;81;20970;-46
2022/06/17 09:48:42;;;;;;;3.95;0.95;;;;;;;29.42;30.34;100813.11;1758906;81;21054;-46
2022/06/17 09:51:16;;;;;;;0.88;0.57;;;;;;;29.91;29.12;100809.80;1759335;81;21455;-45
2022/06/17 09:54:00;;;;;;;2.80;1.00;;;;;;;30.34;26.44;100812.84;1759181;81;20911;-47
2022/06/17 09:56:43;;;;;;;1.75;0.90;;;;;;;30.66;26.35;100811.53;1759215;81;20966;-45
2022/06/17 09:59:21;;;;;;;6.50;0.72;;;;;;;30.92;26.45;100814.77;1759366;81;21440;-44
2022/06/17 10:01:48;;;;;;;0.78;0.42;;;;;;;30.69;26.43;100809.06;1759169;81;21141;-44
2022/06/17 10:04:16;;;;;;;1.82;0.62;;;;;;;30.52;25.84;100816.04;1729726;81;20871;-44
2022/06/17 10:06:54;;;;;;;4.70;0.72;;;;;;;30.54;25.83;100812.72;1758947;81;20951;-44
2022/06/17 10:09:54;;;;;;;11.10;0.80;;;;;;;30.71;26.32;100811.59;1759068;80;21527;-44
2022/06/17 10:12:43;;;;;;;3.00;0.60;;;;;;;31.13;25.47;100806.93;1758948;81;21009;-45
2022/06/17 10:18:31;;;;;;;3.55;0.80;;;;;;;31.54;25.55;100803.72;1759362;81;21552;-45
2022/06/17 10:18:32;;;;;;;1.30;0.72;;;;;;;31.21;23.71;100797.69;1754654;81;20923;-45
2022/06/17 10:21:36;;;;;;;1.70;0.60;;;;;;;30.39;24.07;100801.20;1759140;81;20899;-45
2022/06/17 10:24:44;;;;;;;1.57;0.57;;;;;;;29.62;26.00;100797.89;1758795;81;21509;-45
2022/06/17 10:27:19;;;;;;;2.98;0.80;;;;;;;29.04;26.31;100796.99;1759123;80;20923;-45
2022/06/17 10:30:06;;;;;;;1.40;0.95;;;;;;;28.34;27.03;100798.72;1759139;81;21257;-45
2022/06/17 10:32:36;;;;;;;3.20;0.70;;;;;;;27.81;27.94;100794.45;1758976;81;20922;-43
2022/06/17 10:35:06;;;;;;;2.22;0.90;;;;;;;27.35;28.71;100799.19;1759097;81;20919;-43
2022/06/17 10:37:35;;;;;;;3.98;0.68;;;;;;;27.02;30.59;100793.09;1758977;81;20977;-45
2022/06/17 10:40:05;;;;;;;8.13;1.00;;;;;;;26.88;29.37;100788.42;1759116;81;20970;-46
2022/06/17 10:42:32;;;;;;;3.25;0.80;;;;;;;26.75;29.67;100787.73;1730066;81;21844;-46
2022/06/17 10:45:01;;;;;;;8.43;1.00;;;;;;;26.56;29.82;100783.09;1759088;81;20938;-44
2022/06/17 10:47:42;;;;;;;5.08;0.85;;;;;;;26.56;30.80;100777.29;1758921;81;20958;-44
2022/06/17 10:50:27;;;;;;;1.15;0.80;;;;;;;26.74;31.38;100774.10;1758385;81;21017;-44
2022/06/17 10:53:28;;;;;;;2.67;0.80;;;;;;;27.34;31.18;100774.45;1759225;81;20903;-44
2022/06/17 10:56:02;;;;;;;3.77;0.85;;;;;;;28.11;30.94;100768.30;1759247;81;21130;-44
2022/06/17 10:58:32;;;;;;;9.43;0.90;;;;;;;28.61;29.61;100760.45;1758573;81;20939;-44
2022/06/17 11:01:06;;;;;;;1.47;0.90;;;;;;;28.93;30.18;100760.21;1758921;81;21341;-44
2022/06/17 11:03:39;;;;;;;22.05;1.60;;;;;;;29.48;27.17;100764.06;1759300;81;20903;-45
2022/06/17 11:06:22;;;;;;;28.55;1.55;;;;;;;30.01;29.12;100755.09;1759174;81;21298;-47
2022/06/17 11:09:02;;;;;;;18.00;1.30;;;;;;;30.58;27.64;100754.52;1759021;81;21245;-45
2022/06/17 11:14:49;;;;;;;13.88;1.15;;;;;;;31.16;25.85;100749.15;1748239;81;20947;-45
2022/06/17 11:17:30;;;;;;;175.60;4.85;;;;;;;30.90;26.47;100749.97;1721006;82;20909;-46
2022/06/17 11:19:59;;;;;;;68.02;1.52;;;;;;;31.15;25.22;100751.48;1748439;81;20896;-46
2022/06/17 11:22:34;;;;;;;10.10;1.20;;;;;;;31.57;25.29;100743.23;1748221;81;21735;-46
2022/06/17 11:25:13;;;;;;;75.97;5.30;;;;;;;31.90;24.91;100750.59;1748350;81;21489;-46
2022/06/17 11:27:43;;;;;;;20.17;1.72;;;;;;;31.84;23.80;100751.25;1742901;82;20904;-45
2022/06/17 11:30:19;;;;;;;126.82;3.45;;;;;;;31.27;24.47;100748.60;1748389;82;21417;-45
2022/06/17 11:32:47;;;;;;;13.28;1.50;;;;;;;30.96;24.97;100747.18;1748057;82;20932;-45
2022/06/17 11:35:31;;;;;;;8.83;1.57;;;;;;;30.57;23.88;100741.66;1748230;81;21739;-45
2022/06/17 11:37:58;;;;;;;37.08;3.22;;;;;;;30.19;25.77;100739.59;1747743;82;20881;-45
2022/06/17 11:40:28;;;;;;;6.85;1.95;;;;;;;30.30;26.33;100731.87;1748481;81;21510;-45
2022/06/17 11:43:02;;;;;;;5.55;1.45;;;;;;;30.65;25.08;100731.58;1748288;82;20892;-45
2022/06/17 11:45:35;;;;;;;2.42;1.35;;;;;;;30.82;25.00;100727.20;1757103;81;20912;-44
2022/06/17 11:48:15;;;;;;;5.45;1.40;;;;;;;31.00;24.56;100727.16;1764660;81;21233;-45
2022/06/17 11:51:01;;;;;;;7.28;1.42;;;;;;;30.89;25.15;100726.92;1764601;81;21428;-44
2022/06/17 11:53:28;;;;;;;38.23;3.08;;;;;;;30.69;24.13;100720.92;1764825;81;21534;-45
2022/06/17 11:55:55;;;;;;;28.55;2.52;;;;;;;30.51;25.06;100724.41;1764709;81;20926;-45
2022/06/17 11:58:23;;;;;;;15.28;1.95;;;;;;;30.58;26.67;100721.14;1764783;81;20871;-46
2022/06/17 12:00:55;;;;;;;42.85;3.00;;;;;;;30.86;25.49;100718.39;1736889;81;21224;-46
2022/06/17 12:03:35;;;;;;;22.62;2.20;;;;;;;30.92;24.98;100713.24;1764730;81;20973;-45
2022/06/17 12:06:05;;;;;;;84.30;5.65;;;;;;;30.96;24.41;100707.95;1764669;81;20954;-45
2022/06/17 12:08:40;;;;;;;9.55;1.40;;;;;;;31.12;24.84;100699.69;1737252;81;20962;-45
2022/06/17 12:11:13;;;;;;;6.78;1.47;;;;;;;31.15;24.78;100699.37;1764523;81;20965;-44
2022/06/17 12:13:48;;;;;;;3.80;1.52;;;;;;;31.38;24.35;100699.71;1764652;81;21310;-44
2022/06/17 12:16:22;;;;;;;4.05;0.90;;;;;;;31.47;22.22;100697.06;1764755;81;21028;-45
2022/06/17 12:18:57;;;;;;;5.78;1.00;;;;;;;31.53;24.12;100687.91;1764661;81;20982;-45
2022/06/17 12:21:47;;;;;;;3.02;1.10;;;;;;;31.56;23.30;100684.06;1764010;81;20993;-44